Time;durP1;ratioP1;P1;durP2;ratioP2;P2;SDS_P1;SDS_P2;PMS_P1;PMS_P2;Temp;Humidity;BMP_temperature;BMP_pressure;BME280_temperature;BME280_humidity;BME280_pressure;Samples;Min_cycle;Max_cycle;Signal;HPM_P1;HPM_P2
2021/10/25 00:01:02;;;;;;;0.57;0.50;;;;;;;5.95;93.49;100935.38;5091193;28;20197;-76
2021/10/25 00:03:28;;;;;;;0.90;0.90;;;;;;;5.85;94.30;100937.19;5073173;28;20184;-77
2021/10/25 00:05:53;;;;;;;1.30;0.80;;;;;;;5.75;94.82;100921.72;5091416;28;20182;-77
2021/10/25 00:08:18;;;;;;;3.37;0.87;;;;;;;5.72;95.37;100887.00;5091320;28;20164;-76
2021/10/25 00:10:45;;;;;;;0.77;0.77;;;;;;;5.66;94.72;100924.16;5091222;28;20174;-77
2021/10/25 00:13:10;;;;;;;1.10;1.10;;;;;;;5.75;94.69;100939.88;5091604;28;20184;-77
2021/10/25 00:15:37;;;;;;;1.63;1.13;;;;;;;5.70;95.47;100924.41;5090796;28;20170;-77
2021/10/25 00:18:02;;;;;;;0.73;0.73;;;;;;;5.68;95.51;100930.13;5091173;28;20223;-77
2021/10/25 00:20:28;;;;;;;1.10;0.97;;;;;;;5.79;93.88;100933.66;5072763;28;20193;-77
2021/10/25 00:22:53;;;;;;;2.57;0.80;;;;;;;5.88;92.88;100939.38;5091188;28;20189;-76
2021/10/25 00:25:19;;;;;;;1.20;0.90;;;;;;;5.82;93.27;100932.31;5090517;28;20220;-77
2021/10/25 00:27:44;;;;;;;1.23;0.73;;;;;;;5.71;94.16;100927.94;5090976;28;20598;-77
2021/10/25 00:30:10;;;;;;;0.80;0.80;;;;;;;5.43;95.78;100932.72;5091047;28;20700;-76
2021/10/25 00:32:35;;;;;;;1.13;0.93;;;;;;;5.35;97.54;100928.66;5090996;28;20174;-77
2021/10/25 00:35:01;;;;;;;1.60;0.97;;;;;;;5.21;98.55;100919.38;5090653;28;20166;-77
2021/10/25 00:37:26;;;;;;;1.10;1.00;;;;;;;5.05;99.57;100918.47;5090889;28;20256;-76
2021/10/25 00:39:51;;;;;;;1.20;1.13;;;;;;;5.00;100.00;100923.03;5090949;28;20253;-77
2021/10/25 00:42:17;;;;;;;1.13;0.90;;;;;;;4.92;100.00;100926.22;5090841;28;20229;-77
2021/10/25 00:44:42;;;;;;;1.50;0.80;;;;;;;4.95;100.00;100929.25;5090463;28;20246;-76
2021/10/25 00:47:08;;;;;;;1.97;0.60;;;;;;;4.87;100.00;100937.84;5090740;28;20243;-77
2021/10/25 00:49:34;;;;;;;1.13;1.03;;;;;;;4.76;100.00;100934.25;5090624;28;20254;-77
2021/10/25 00:52:00;;;;;;;0.70;0.67;;;;;;;4.74;100.00;100938.31;5090474;28;20637;-77
2021/10/25 00:54:25;;;;;;;2.30;0.70;;;;;;;4.69;100.00;100936.38;5090943;28;20170;-77
2021/10/25 00:56:51;;;;;;;1.40;1.00;;;;;;;4.58;100.00;100913.03;5094868;28;20178;-77
2021/10/25 00:59:16;;;;;;;0.80;0.80;;;;;;;4.56;100.00;100933.31;5094904;28;20175;-78
2021/10/25 01:01:42;;;;;;;0.60;0.60;;;;;;;4.52;100.00;100953.84;5094740;28;20208;-76
2021/10/25 01:04:09;;;;;;;6.50;0.90;;;;;;;4.53;100.00;100941.94;5094919;28;20205;-77
2021/10/25 01:06:36;;;;;;;1.13;0.80;;;;;;;4.57;100.00;100927.63;5076386;28;20185;-76
2021/10/25 01:09:02;;;;;;;1.50;0.80;;;;;;;4.61;100.00;100934.16;5094664;28;20223;-76
2021/10/25 01:11:27;;;;;;;2.20;0.70;;;;;;;4.68;100.00;100933.94;5094663;28;20205;-77
2021/10/25 01:13:53;;;;;;;1.27;0.93;;;;;;;4.74;100.00;100941.81;5094518;28;20218;-77
2021/10/25 01:16:19;;;;;;;2.53;0.93;;;;;;;4.84;100.00;100941.09;5094172;28;20170;-76
2021/10/25 01:18:45;;;;;;;2.30;1.40;;;;;;;4.88;100.00;100944.09;5094463;28;20207;-76
2021/10/25 01:21:12;;;;;;;2.43;1.20;;;;;;;4.88;100.00;100925.13;5094293;28;20310;-76
2021/10/25 01:23:37;;;;;;;2.03;0.93;;;;;;;4.82;100.00;100935.13;5094299;28;20174;-77
2021/10/25 01:26:03;;;;;;;1.33;1.00;;;;;;;4.76;100.00;100931.56;5094168;28;20193;-77
2021/10/25 01:28:28;;;;;;;1.40;1.30;;;;;;;4.73;100.00;100945.59;5076138;28;20182;-77
2021/10/25 01:30:54;;;;;;;1.27;1.27;;;;;;;4.68;100.00;100944.78;5094247;28;20178;-77
2021/10/25 01:33:20;;;;;;;0.80;0.80;;;;;;;4.58;100.00;100931.97;5094193;28;20174;-76
2021/10/25 01:35:45;;;;;;;2.53;1.00;;;;;;;4.60;100.00;100946.06;5093855;28;20174;-77
2021/10/25 01:38:11;;;;;;;1.23;1.00;;;;;;;4.67;100.00;100935.84;5094170;28;20261;-76
2021/10/25 01:40:36;;;;;;;1.80;1.40;;;;;;;4.63;100.00;100936.59;5093940;28;20589;-76
2021/10/25 01:43:02;;;;;;;1.40;1.30;;;;;;;4.46;100.00;100939.44;5094057;28;20198;-77
2021/10/25 01:45:28;;;;;;;1.50;1.40;;;;;;;4.46;100.00;100934.84;5093700;28;20764;-76
2021/10/25 01:47:54;;;;;;;0.60;0.60;;;;;;;4.43;100.00;100940.78;5093950;28;20215;-77
2021/10/25 01:50:20;;;;;;;2.77;1.07;;;;;;;4.41;100.00;100942.94;5093917;28;20532;-76
2021/10/25 01:52:45;;;;;;;0.90;0.90;;;;;;;4.69;100.00;100939.09;5093850;28;20211;-77
2021/10/25 01:55:11;;;;;;;1.07;1.07;;;;;;;4.80;100.00;100947.28;5093166;28;20195;-77
2021/10/25 01:57:36;;;;;;;4.83;0.77;;;;;;;4.84;100.00;100943.78;5093874;28;20621;-77
2021/10/25 02:00:02;;;;;;;0.80;0.80;;;;;;;4.98;100.00;100936.03;5093717;28;20219;-77
2021/10/25 02:02:28;;;;;;;1.20;1.10;;;;;;;4.98;100.00;100939.56;5093550;28;20682;-76
2021/10/25 02:04:53;;;;;;;3.50;1.17;;;;;;;4.99;100.00;100938.47;5093151;28;20176;-77
2021/10/25 02:07:19;;;;;;;2.17;1.00;;;;;;;4.99;100.00;100918.72;5093365;28;20196;-77
2021/10/25 02:09:44;;;;;;;1.63;0.90;;;;;;;4.92;100.00;100909.97;5093559;28;20197;-77
2021/10/25 02:12:10;;;;;;;1.20;1.10;;;;;;;4.78;100.00;100918.59;5093543;28;20269;-76
2021/10/25 02:14:36;;;;;;;1.67;0.93;;;;;;;4.74;100.00;100928.28;5093296;28;20174;-77
2021/10/25 02:17:02;;;;;;;1.13;1.00;;;;;;;4.77;100.00;100925.09;5093340;28;20227;-78
2021/10/25 02:19:27;;;;;;;1.00;0.90;;;;;;;4.85;100.00;100925.66;5093426;28;20199;-77
2021/10/25 02:21:53;;;;;;;2.90;0.80;;;;;;;4.95;100.00;100926.53;5093435;28;20208;-77
2021/10/25 02:24:18;;;;;;;2.50;1.20;;;;;;;5.10;100.00;100928.53;5094506;28;20178;-77
2021/10/25 02:26:44;;;;;;;1.30;0.93;;;;;;;5.22;100.00;100931.84;5094058;28;20227;-77
2021/10/25 02:29:10;;;;;;;1.10;1.00;;;;;;;5.41;99.44;100928.66;5093173;28;20603;-77
2021/10/25 02:31:35;;;;;;;1.40;1.10;;;;;;;5.52;98.13;100933.03;5093029;28;20162;-77
2021/10/25 02:34:00;;;;;;;1.40;1.30;;;;;;;5.61;96.93;100915.97;5093139;28;20170;-77
2021/10/25 02:36:26;;;;;;;1.37;1.10;;;;;;;5.60;95.98;100925.19;5093860;28;20273;-77
2021/10/25 02:38:51;;;;;;;1.63;1.53;;;;;;;5.64;95.59;100920.88;5093219;28;20174;-77
2021/10/25 02:41:16;;;;;;;2.47;1.00;;;;;;;5.63;95.53;100921.13;5093251;28;20229;-77
2021/10/25 02:43:42;;;;;;;0.90;0.90;;;;;;;5.63;94.93;100918.41;5092851;28;20640;-77
2021/10/25 02:46:07;;;;;;;2.80;1.47;;;;;;;5.53;94.95;100915.69;5074669;28;20594;-77
2021/10/25 02:48:33;;;;;;;1.77;1.27;;;;;;;5.55;95.16;100914.34;5093205;28;20603;-77
2021/10/25 02:50:58;;;;;;;1.53;1.07;;;;;;;5.66;94.89;100923.34;5093125;28;20187;-77
2021/10/25 02:53:24;;;;;;;1.80;1.70;;;;;;;5.63;94.09;100913.81;5092728;28;20174;-77
2021/10/25 02:55:50;;;;;;;1.43;1.10;;;;;;;5.73;94.18;100915.75;5091747;28;20595;-75
2021/10/25 02:58:16;;;;;;;4.60;1.50;;;;;;;5.68;93.24;100904.91;5092607;28;20249;-77
2021/10/25 03:00:42;;;;;;;2.30;1.00;;;;;;;5.71;93.53;100908.97;5087494;28;20506;-74
2021/10/25 03:03:08;;;;;;;1.73;1.13;;;;;;;5.73;93.74;100904.91;5085192;28;20181;-78
2021/10/25 03:05:33;;;;;;;1.33;1.07;;;;;;;5.67;93.08;100914.13;5092654;28;20162;-78
2021/10/25 03:07:59;;;;;;;1.50;1.10;;;;;;;5.55;94.02;100902.69;5092780;28;20660;-77
2021/10/25 03:10:24;;;;;;;2.20;1.50;;;;;;;5.43;94.46;100900.22;5092944;28;20177;-77
2021/10/25 03:12:50;;;;;;;1.13;1.03;;;;;;;5.26;96.19;100903.13;5092834;28;20174;-77
2021/10/25 03:15:17;;;;;;;1.03;1.00;;;;;;;5.21;97.21;100897.72;5092528;28;20178;-77
2021/10/25 03:17:44;;;;;;;4.17;1.37;;;;;;;5.08;98.07;100890.06;5092126;28;20178;-77
2021/10/25 03:20:11;;;;;;;2.53;1.33;;;;;;;5.06;98.32;100889.47;5092413;28;20219;-75
2021/10/25 03:22:37;;;;;;;1.63;1.30;;;;;;;5.20;97.68;100890.63;5092766;28;20296;-77
2021/10/25 03:25:04;;;;;;;1.10;1.00;;;;;;;5.13;97.46;100887.38;5092361;28;20644;-77
2021/10/25 03:27:29;;;;;;;1.27;1.17;;;;;;;5.19;97.67;100880.88;5092380;28;20181;-77
2021/10/25 03:29:54;;;;;;;1.07;0.93;;;;;;;5.15;98.18;100881.69;5092466;28;20593;-77
2021/10/25 03:32:20;;;;;;;1.67;1.07;;;;;;;5.08;99.20;100880.03;5092789;28;20256;-76
2021/10/25 03:34:46;;;;;;;0.77;0.77;;;;;;;5.10;99.57;100879.78;5091871;28;20178;-77
2021/10/25 03:37:11;;;;;;;1.17;1.07;;;;;;;5.12;99.83;100876.78;5091867;28;20181;-78
2021/10/25 03:39:39;;;;;;;2.50;1.10;;;;;;;5.16;100.00;100873.28;5092239;28;20184;-77
2021/10/25 03:42:11;;;;;;;3.10;1.40;;;;;;;5.20;99.76;100874.38;5092131;28;20209;-78
2021/10/25 03:44:46;;;;;;;2.60;1.10;;;;;;;5.25;99.64;100876.31;5091386;28;20154;-77
2021/10/25 03:47:23;;;;;;;2.60;1.03;;;;;;;5.30;98.96;100879.84;5091723;28;20791;-77
2021/10/25 03:49:54;;;;;;;4.30;1.00;;;;;;;5.28;99.02;100876.59;5091682;28;20174;-77
2021/10/25 03:52:36;;;;;;;0.70;0.70;;;;;;;5.37;98.17;100866.06;5091655;28;20154;-77
2021/10/25 03:55:26;;;;;;;1.33;1.10;;;;;;;5.37;98.44;100875.00;5090875;28;20165;-78
2021/10/25 04:00:54;;;;;;;3.03;2.47;;;;;;;5.17;98.54;100863.28;5091852;28;20181;-77
2021/10/25 04:30:31;;;;;;;1.77;1.30;;;;;;;3.84;100.00;100878.63;5090420;28;20188;-77
2021/10/25 04:32:57;;;;;;;1.10;0.87;;;;;;;3.74;100.00;100878.50;5090752;28;20170;-77
2021/10/25 04:35:23;;;;;;;1.37;1.20;;;;;;;3.72;100.00;100869.84;5090314;28;20652;-76
2021/10/25 04:37:48;;;;;;;1.70;1.40;;;;;;;3.68;100.00;100879.53;5090782;28;20176;-77
2021/10/25 04:40:14;;;;;;;0.73;0.73;;;;;;;3.79;100.00;100875.06;5090699;28;20726;-77
2021/10/25 04:42:40;;;;;;;2.20;1.20;;;;;;;3.89;100.00;100880.53;5072601;28;20259;-77
2021/10/25 04:45:06;;;;;;;1.43;1.33;;;;;;;4.06;100.00;100883.97;5090399;28;20260;-78
2021/10/25 04:47:31;;;;;;;1.27;1.27;;;;;;;4.20;100.00;100878.94;5090681;28;20170;-77
2021/10/25 04:49:56;;;;;;;1.70;1.60;;;;;;;4.37;100.00;100879.63;5090542;28;20174;-77
2021/10/25 04:52:23;;;;;;;0.97;0.93;;;;;;;4.56;100.00;100885.41;5072442;28;20192;-76
2021/10/25 04:54:48;;;;;;;2.40;1.30;;;;;;;4.75;100.00;100874.97;5089954;28;20170;-77
2021/10/25 04:57:13;;;;;;;0.97;0.83;;;;;;;4.87;100.00;100875.59;5090388;28;20577;-78
2021/10/25 04:59:39;;;;;;;3.03;1.20;;;;;;;4.97;100.00;100886.47;5090309;28;20642;-77
2021/10/25 05:02:04;;;;;;;1.43;1.33;;;;;;;5.06;100.00;100876.78;5090092;28;20245;-77
2021/10/25 05:04:31;;;;;;;3.20;1.97;;;;;;;5.10;100.00;100868.94;5090557;28;20239;-77
2021/10/25 05:06:57;;;;;;;1.70;1.50;;;;;;;5.18;100.00;100870.31;5090226;28;20185;-78
2021/10/25 05:09:22;;;;;;;2.07;1.87;;;;;;;5.22;100.00;100877.66;5090217;28;20529;-77
2021/10/25 05:11:48;;;;;;;2.27;2.03;;;;;;;5.26;100.00;100865.22;5090138;28;20174;-78
2021/10/25 05:14:13;;;;;;;2.83;1.67;;;;;;;5.19;100.00;100853.78;5089876;28;20184;-78
2021/10/25 05:16:38;;;;;;;3.40;2.70;;;;;;;5.16;100.00;100861.63;5089941;28;20448;-76
2021/10/25 05:19:04;;;;;;;3.67;2.73;;;;;;;5.06;100.00;100851.56;5090122;28;20206;-78
2021/10/25 05:21:29;;;;;;;1.87;1.77;;;;;;;5.08;100.00;100868.41;5090135;28;20206;-77
2021/10/25 05:23:55;;;;;;;2.50;2.20;;;;;;;4.93;100.00;100854.78;5089705;28;20178;-77
2021/10/25 05:26:20;;;;;;;2.17;1.97;;;;;;;4.76;100.00;100850.34;5090326;28;20264;-78
2021/10/25 05:28:45;;;;;;;6.70;2.73;;;;;;;4.83;100.00;100858.25;5090178;28;20626;-74
2021/10/25 05:31:11;;;;;;;3.53;2.30;;;;;;;4.62;100.00;100846.47;5090034;28;20214;-74
2021/10/25 05:33:40;;;;;;;1.97;1.60;;;;;;;4.73;100.00;100858.19;5071668;28;20227;-74
2021/10/25 05:36:07;;;;;;;1.93;1.63;;;;;;;4.41;100.00;100837.44;5071942;28;20200;-76
2021/10/25 05:38:33;;;;;;;1.67;1.57;;;;;;;4.18;100.00;100837.81;5090178;28;20178;-75
2021/10/25 05:40:59;;;;;;;3.97;1.50;;;;;;;4.25;100.00;100837.59;5091881;28;20631;-75
2021/10/25 05:43:24;;;;;;;3.03;2.30;;;;;;;3.99;100.00;100839.28;5090772;28;20209;-73
2021/10/25 05:45:49;;;;;;;2.23;1.60;;;;;;;4.28;100.00;100839.78;5086007;28;20210;-73
2021/10/25 05:48:15;;;;;;;2.57;1.30;;;;;;;4.39;100.00;100833.38;5093427;28;20181;-83
2021/10/25 05:50:42;;;;;;;1.70;1.60;;;;;;;4.37;100.00;100840.94;5093946;28;20186;-76
2021/10/25 05:53:08;;;;;;;1.87;1.37;;;;;;;4.15;100.00;100831.03;5092204;28;20174;-76
2021/10/25 05:55:34;;;;;;;1.17;1.07;;;;;;;4.09;100.00;100834.78;5092852;28;20176;-75
2021/10/25 05:58:00;;;;;;;1.20;1.10;;;;;;;4.06;100.00;100838.00;5088278;28;20185;-75
2021/10/25 06:00:28;;;;;;;1.60;1.50;;;;;;;3.78;100.00;100827.50;5081408;28;20186;-75
2021/10/25 06:02:54;;;;;;;2.00;1.17;;;;;;;3.81;100.00;100833.19;5092031;28;20185;-75
2021/10/25 06:05:28;;;;;;;1.23;1.10;;;;;;;3.81;100.00;100843.19;5092937;28;20243;-75
2021/10/25 06:07:54;;;;;;;2.00;1.40;;;;;;;3.79;100.00;100843.44;5093208;28;20158;-75
2021/10/25 06:10:26;;;;;;;2.03;1.90;;;;;;;3.79;100.00;100848.84;5093725;28;20595;-76
2021/10/25 06:12:53;;;;;;;2.07;1.87;;;;;;;3.71;100.00;100851.19;5093255;28;20161;-77
2021/10/25 06:15:21;;;;;;;1.70;1.60;;;;;;;3.80;100.00;100855.88;5093154;28;20174;-77
2021/10/25 06:20:19;;;;;;;2.40;1.63;;;;;;;3.73;100.00;100857.16;5093071;28;20285;-75
2021/10/25 06:22:45;;;;;;;1.90;1.43;;;;;;;3.69;100.00;100856.03;5092718;28;20206;-75
2021/10/25 06:25:13;;;;;;;1.47;1.37;;;;;;;3.69;100.00;100856.84;5092481;28;20166;-75
2021/10/25 06:27:39;;;;;;;1.80;1.43;;;;;;;3.67;100.00;100856.31;5090859;28;20209;-75
2021/10/25 06:30:05;;;;;;;2.23;2.03;;;;;;;3.72;100.00;100864.44;5092811;28;20198;-75
2021/10/25 06:32:31;;;;;;;2.17;1.20;;;;;;;3.71;100.00;100865.53;5092747;28;20177;-75
2021/10/25 06:34:59;;;;;;;1.73;1.63;;;;;;;3.63;100.00;100874.09;5092205;28;20638;-76
2021/10/25 06:37:31;;;;;;;1.97;1.40;;;;;;;3.71;100.00;100867.41;5092729;28;20170;-74
2021/10/25 06:39:57;;;;;;;2.03;1.80;;;;;;;3.78;100.00;100868.03;5092728;28;20170;-75
2021/10/25 06:42:25;;;;;;;2.47;2.27;;;;;;;3.89;100.00;100878.66;5092163;28;20198;-76
2021/10/25 06:44:59;;;;;;;2.07;1.87;;;;;;;3.96;100.00;100872.25;5092248;28;20178;-75
2021/10/25 06:47:24;;;;;;;2.37;1.30;;;;;;;3.99;100.00;100875.25;5092341;28;20170;-77
2021/10/25 06:49:50;;;;;;;2.13;2.00;;;;;;;4.03;100.00;100868.25;5073569;28;20523;-78
2021/10/25 06:52:16;;;;;;;1.60;1.50;;;;;;;4.07;100.00;100872.09;5088395;28;20178;-76
2021/10/25 06:54:41;;;;;;;2.17;1.80;;;;;;;4.10;100.00;100862.63;5086028;28;20639;-79
2021/10/25 06:57:07;;;;;;;3.57;1.73;;;;;;;4.06;100.00;100872.34;5070926;28;20608;-80
2021/10/25 06:59:32;;;;;;;2.10;1.80;;;;;;;4.22;100.00;100873.28;5090536;28;20533;-78
2021/10/25 07:01:58;;;;;;;2.70;2.50;;;;;;;4.25;100.00;100870.06;5086708;28;20205;-80
2021/10/25 07:04:23;;;;;;;3.50;3.20;;;;;;;4.29;100.00;100876.56;5088472;28;20258;-79
2021/10/25 07:06:51;;;;;;;4.03;2.63;;;;;;;4.34;100.00;100877.44;5088915;28;20193;-82
2021/10/25 07:09:18;;;;;;;3.93;3.57;;;;;;;4.35;100.00;100873.66;5089973;28;20652;-74
2021/10/25 07:11:44;;;;;;;4.20;3.30;;;;;;;4.43;100.00;100877.75;5091802;28;20178;-73
2021/10/25 07:14:10;;;;;;;3.37;3.10;;;;;;;4.54;100.00;100859.72;5091540;28;20170;-75
2021/10/25 08:10:01;;;;;;;3.03;2.60;;;;;;;5.76;100.00;100901.66;5091741;28;20249;-75
2021/10/25 08:12:29;;;;;;;4.90;2.70;;;;;;;5.87;100.00;100899.78;5091138;28;20227;-74
2021/10/25 08:15:01;;;;;;;3.67;3.33;;;;;;;5.91;100.00;100893.56;5088956;28;20170;-75
2021/10/25 08:17:40;;;;;;;3.43;2.70;;;;;;;6.02;100.00;100897.13;5090154;28;20181;-75
2021/10/25 08:20:07;;;;;;;3.13;2.93;;;;;;;6.26;100.00;100886.56;5091073;28;20712;-75
2021/10/25 08:22:33;;;;;;;2.13;1.43;;;;;;;6.61;100.00;100877.56;5090810;28;20443;-76
2021/10/25 08:24:59;;;;;;;1.63;1.53;;;;;;;6.91;100.00;100881.28;5090477;28;20174;-75
2021/10/25 08:27:25;;;;;;;3.40;1.90;;;;;;;7.27;97.38;100884.72;5090676;28;20169;-74
2021/10/25 08:29:50;;;;;;;2.17;1.60;;;;;;;7.42;95.21;100876.47;5090847;28;20182;-76
2021/10/25 08:39:59;;;;;;;1.83;1.40;;;;;;;7.97;89.70;100910.69;5090599;28;20385;-75
2021/10/25 08:42:29;;;;;;;2.10;1.90;;;;;;;8.02;89.41;100915.28;5090242;28;20205;-76
2021/10/25 08:45:08;;;;;;;1.90;1.50;;;;;;;8.14;89.38;100913.03;5090210;28;20230;-75
2021/10/25 08:47:39;;;;;;;1.63;1.53;;;;;;;8.25;89.60;100909.16;5090377;28;20173;-75
2021/10/25 08:50:08;;;;;;;1.83;1.70;;;;;;;8.45;89.40;100923.72;5090429;28;20181;-75
2021/10/25 08:52:34;;;;;;;4.37;1.80;;;;;;;8.60;88.93;100923.56;5090617;28;20162;-76
2021/10/25 08:55:05;;;;;;;1.87;1.40;;;;;;;8.70;87.21;100919.94;5090617;28;20199;-76
2021/10/25 08:57:32;;;;;;;1.40;1.30;;;;;;;8.86;86.25;100919.50;5090679;28;20154;-76
2021/10/25 09:00:13;;;;;;;1.17;1.07;;;;;;;9.01;85.04;100915.00;5090778;28;20170;-75
2021/10/25 09:02:40;;;;;;;1.23;1.13;;;;;;;9.14;84.75;100914.31;5090720;28;20610;-76
2021/10/25 09:05:08;;;;;;;1.77;1.30;;;;;;;9.20;84.31;100907.69;5090425;28;20174;-76
2021/10/25 09:07:51;;;;;;;1.90;1.30;;;;;;;9.25;85.03;100905.69;5090626;28;20178;-77
2021/10/25 09:10:24;;;;;;;1.77;1.53;;;;;;;9.33;84.59;100915.16;5091768;28;20170;-77
2021/10/25 09:13:00;;;;;;;3.90;2.10;;;;;;;9.42;84.21;100915.34;5091620;28;20190;-76
2021/10/25 09:15:28;;;;;;;0.93;0.93;;;;;;;9.64;85.05;100918.31;5091562;28;20185;-76
2021/10/25 09:17:53;;;;;;;1.60;1.50;;;;;;;9.67;83.08;100906.00;5094404;28;20212;-76
2021/10/25 09:20:20;;;;;;;1.67;1.53;;;;;;;9.70;83.27;100910.88;5095239;28;20644;-76
2021/10/25 09:22:45;;;;;;;1.53;1.30;;;;;;;9.75;83.32;100905.34;5095167;28;20194;-76
2021/10/25 09:25:12;;;;;;;1.17;0.87;;;;;;;9.93;83.46;100915.44;5094447;28;20249;-76
2021/10/25 09:27:42;;;;;;;2.07;1.37;;;;;;;10.09;81.93;100913.31;5094788;28;20273;-76
2021/10/25 09:30:10;;;;;;;1.30;1.20;;;;;;;10.17;81.09;100909.91;5095018;28;20173;-75
2021/10/25 09:32:39;;;;;;;2.90;1.60;;;;;;;10.24;80.84;100915.81;5094469;28;20562;-75
2021/10/25 09:35:15;;;;;;;1.53;1.20;;;;;;;10.39;80.97;100915.56;5093943;28;20219;-75
2021/10/25 09:37:47;;;;;;;1.60;1.50;;;;;;;10.52;80.15;100924.13;5094113;28;20534;-75
2021/10/25 09:40:30;;;;;;;3.60;1.43;;;;;;;10.64;78.92;100914.34;5094170;28;20629;-76
2021/10/25 09:43:10;;;;;;;2.10;1.40;;;;;;;10.76;77.79;100908.41;5094203;28;20166;-75
2021/10/25 09:51:01;;;;;;;1.23;1.10;;;;;;;11.02;78.54;100900.53;5092522;28;20723;-76
2021/10/25 09:53:46;;;;;;;1.50;1.10;;;;;;;10.94;76.89;100898.50;5092217;28;20205;-76
2021/10/25 09:56:15;;;;;;;0.70;0.70;;;;;;;10.83;77.16;100894.31;5092826;28;20169;-76
2021/10/25 09:58:47;;;;;;;1.30;1.07;;;;;;;10.75;77.63;100884.91;5092830;28;20170;-76
2021/10/25 10:01:14;;;;;;;2.57;2.37;;;;;;;10.87;78.33;100895.34;5092715;28;20664;-76
2021/10/25 10:03:43;;;;;;;3.23;1.20;;;;;;;10.89;78.98;100895.88;5092652;28;20671;-76
2021/10/25 10:06:10;;;;;;;1.07;0.60;;;;;;;10.80;77.08;100889.47;5093102;28;20709;-76
2021/10/25 10:08:36;;;;;;;1.10;0.80;;;;;;;10.84;78.78;100893.22;5093242;28;20169;-76
2021/10/25 10:11:01;;;;;;;3.43;1.60;;;;;;;10.73;77.76;100889.88;5074934;28;20201;-76
2021/10/25 10:13:27;;;;;;;1.37;1.23;;;;;;;10.70;78.30;100879.53;5093437;28;20502;-76
2021/10/25 10:15:54;;;;;;;1.73;1.63;;;;;;;10.75;79.78;100881.38;5092682;28;20174;-77
2021/10/25 10:18:23;;;;;;;3.03;1.53;;;;;;;10.86;79.04;100889.09;5093040;28;20170;-77
2021/10/25 10:20:53;;;;;;;1.20;1.20;;;;;;;10.92;79.58;100879.66;5092855;28;20622;-76
2021/10/25 10:23:20;;;;;;;1.93;1.10;;;;;;;11.00;79.93;100876.22;5092969;28;20174;-77
2021/10/25 10:25:54;;;;;;;1.00;0.77;;;;;;;10.94;78.37;100877.44;5092325;28;20193;-76
2021/10/25 10:28:31;;;;;;;0.70;0.70;;;;;;;10.90;78.61;100872.88;5092811;28;20179;-77
2021/10/25 10:31:20;;;;;;;1.47;0.70;;;;;;;10.98;79.37;100862.03;5092854;28;20177;-76
2021/10/25 10:33:52;;;;;;;0.60;0.60;;;;;;;11.07;78.32;100869.53;5092502;28;20571;-76
2021/10/25 10:36:22;;;;;;;1.20;1.10;;;;;;;11.20;78.30;100871.47;5092486;28;20174;-76
2021/10/25 10:39:08;;;;;;;2.30;1.50;;;;;;;11.39;78.02;100872.13;5092669;28;20184;-77
2021/10/25 10:41:42;;;;;;;1.43;1.33;;;;;;;11.53;77.93;100874.84;5092505;28;20205;-76
2021/10/25 10:44:12;;;;;;;0.40;0.40;;;;;;;11.64;76.51;100870.78;5092194;28;20173;-76
2021/10/25 10:46:48;;;;;;;0.60;0.50;;;;;;;11.63;75.85;100871.91;5092337;28;20244;-76
2021/10/25 10:49:32;;;;;;;1.00;0.63;;;;;;;11.69;76.24;100889.00;5092416;28;20219;-77
2021/10/25 10:52:36;;;;;;;2.03;1.43;;;;;;;11.89;76.62;100878.47;5092508;28;20176;-78
2021/10/25 10:55:18;;;;;;;1.30;1.20;;;;;;;11.96;75.23;100863.50;5090141;28;20691;-76
2021/10/25 11:00:30;;;;;;;1.63;1.40;;;;;;;12.02;75.19;100871.31;5091089;28;20166;-76
2021/10/25 11:03:12;;;;;;;2.33;1.10;;;;;;;12.11;74.94;100860.41;5092115;28;20234;-76
2021/10/25 11:05:41;;;;;;;0.93;0.70;;;;;;;12.30;74.10;100866.53;5091536;28;20629;-76
2021/10/25 11:08:18;;;;;;;1.83;0.97;;;;;;;12.41;73.61;100873.34;5092614;28;20172;-75
2021/10/25 11:10:46;;;;;;;0.70;0.50;;;;;;;12.29;72.90;100867.63;5092095;28;20227;-76
2021/10/25 11:13:27;;;;;;;2.40;1.30;;;;;;;12.42;74.60;100872.22;5091897;28;20174;-77
2021/10/25 11:18:52;;;;;;;1.70;1.60;;;;;;;12.87;73.21;100876.78;5081122;28;20190;-76
2021/10/25 11:21:21;;;;;;;1.80;1.70;;;;;;;12.97;72.58;100885.56;5091790;28;20288;-77
2021/10/25 11:23:54;;;;;;;1.90;1.80;;;;;;;13.07;70.96;100888.03;5091582;28;20174;-75
2021/10/25 11:26:27;;;;;;;1.67;1.57;;;;;;;13.21;71.51;100889.88;5091745;28;20169;-76
2021/10/25 11:29:14;;;;;;;2.37;1.57;;;;;;;13.27;70.54;100888.59;5091635;28;20174;-75
2021/10/25 11:31:43;;;;;;;0.73;0.73;;;;;;;13.04;69.52;100885.94;5091538;28;20181;-75
2021/10/25 11:34:11;;;;;;;1.73;0.60;;;;;;;13.04;69.48;100894.16;5091075;28;20190;-76
2021/10/25 11:36:48;;;;;;;2.30;1.67;;;;;;;13.02;70.56;100882.69;5091504;28;20234;-76
2021/10/25 11:39:13;;;;;;;1.47;1.37;;;;;;;12.81;70.68;100876.94;5090992;28;20227;-75
2021/10/25 11:41:47;;;;;;;2.40;2.20;;;;;;;12.84;69.91;100872.75;5091377;28;20206;-75
2021/10/25 11:44:14;;;;;;;1.37;1.10;;;;;;;12.96;69.06;100870.22;5091104;28;20180;-73
2021/10/25 11:46:39;;;;;;;1.77;1.27;;;;;;;13.08;69.11;100875.13;5091142;28;20274;-76
2021/10/25 11:49:05;;;;;;;1.97;1.70;;;;;;;13.13;68.87;100871.41;5091350;28;20260;-75
2021/10/25 11:51:30;;;;;;;2.00;1.60;;;;;;;13.30;69.44;100868.75;5091227;28;20675;-76
2021/10/25 11:53:58;;;;;;;1.67;1.33;;;;;;;13.23;67.69;100865.69;5090911;28;20177;-75
2021/10/25 11:56:25;;;;;;;1.70;1.17;;;;;;;13.34;68.40;100870.56;5091152;28;20174;-76
2021/10/25 11:58:52;;;;;;;0.80;0.80;;;;;;;13.31;67.89;100864.91;5091209;28;20198;-75
2021/10/25 12:01:18;;;;;;;2.57;1.80;;;;;;;12.98;68.10;100862.50;5091280;28;20194;-76
2021/10/25 12:03:43;;;;;;;2.93;1.50;;;;;;;12.98;68.95;100857.00;5090805;28;20177;-75
2021/10/25 12:06:22;;;;;;;1.40;1.20;;;;;;;12.88;69.13;100849.09;5090815;28;20219;-76
2021/10/25 12:09:00;;;;;;;1.83;1.67;;;;;;;12.84;69.93;100844.53;5091355;28;20169;-76
2021/10/25 12:11:49;;;;;;;1.33;1.23;;;;;;;12.79;70.11;100849.03;5090782;28;20645;-76
2021/10/25 12:14:16;;;;;;;1.83;1.47;;;;;;;12.67;69.90;100832.38;5091074;28;20180;-76
2021/10/25 12:16:46;;;;;;;1.40;1.30;;;;;;;12.66;70.68;100835.44;5090771;28;20184;-75
2021/10/25 12:19:12;;;;;;;2.50;1.20;;;;;;;12.67;69.80;100826.06;5091187;28;20532;-76
2021/10/25 12:21:37;;;;;;;2.07;1.57;;;;;;;12.72;69.96;100831.41;5090643;28;20225;-76
2021/10/25 12:24:08;;;;;;;1.27;1.17;;;;;;;12.74;70.51;100829.19;5090290;28;20422;-75
2021/10/25 12:26:35;;;;;;;1.53;1.43;;;;;;;12.68;69.59;100814.78;5090494;28;20170;-75
2021/10/25 12:29:00;;;;;;;1.80;1.30;;;;;;;12.80;70.19;100809.53;5090651;28;20201;-75
2021/10/25 12:31:27;;;;;;;1.47;1.37;;;;;;;12.92;68.99;100814.41;5090668;28;20222;-74
2021/10/25 12:34:03;;;;;;;1.23;1.13;;;;;;;13.05;67.50;100807.19;5091037;28;20690;-74
2021/10/25 12:36:36;;;;;;;2.50;1.80;;;;;;;13.18;67.92;100806.28;5090959;28;20557;-72
2021/10/25 12:39:16;;;;;;;4.70;3.47;;;;;;;13.07;67.61;100800.25;5090902;28;20219;-72
2021/10/25 12:41:44;;;;;;;4.33;3.73;;;;;;;13.20;67.82;100797.72;5090697;28;20284;-72
2021/10/25 12:44:09;;;;;;;3.23;2.73;;;;;;;13.27;67.94;100792.56;5090286;28;20174;-72
2021/10/25 12:46:35;;;;;;;3.37;2.50;;;;;;;13.25;67.44;100784.66;5090961;28;20174;-72
2021/10/25 12:49:01;;;;;;;3.70;2.83;;;;;;;13.38;67.09;100783.69;5090942;28;20590;-72
2021/10/25 12:51:41;;;;;;;2.00;1.80;;;;;;;13.21;65.79;100789.19;5089995;28;20266;-73
2021/10/25 12:54:08;;;;;;;2.03;1.80;;;;;;;13.04;65.71;100778.94;5090625;28;20169;-73
2021/10/25 12:56:34;;;;;;;2.20;1.67;;;;;;;12.98;67.33;100773.91;5090536;28;20620;-71
2021/10/25 12:59:14;;;;;;;2.97;2.10;;;;;;;12.78;67.46;100791.78;5090592;28;20170;-71
2021/10/25 13:01:59;;;;;;;2.20;1.53;;;;;;;12.96;67.43;100755.03;5090733;28;20197;-73
2021/10/25 13:04:27;;;;;;;1.87;1.73;;;;;;;12.88;66.89;100755.84;5089718;28;20243;-73
2021/10/25 13:06:53;;;;;;;1.80;1.70;;;;;;;13.05;67.77;100753.13;5090612;28;20189;-73
2021/10/25 13:09:18;;;;;;;2.57;2.33;;;;;;;13.12;66.38;100747.16;5090644;28;20166;-73
2021/10/25 13:11:45;;;;;;;2.50;2.17;;;;;;;12.82;66.65;100735.16;5090650;28;20174;-73
2021/10/25 13:14:11;;;;;;;4.50;3.27;;;;;;;12.60;67.74;100735.28;5090299;28;20174;-73
2021/10/25 13:16:44;;;;;;;2.63;2.30;;;;;;;12.58;68.34;100732.03;5090323;28;20181;-73